sensor_id;sensor_type;location;lat;lon;timestamp;P1;durP1;ratioP1;P2;durP2;ratioP2
912;SDS011;443;51.448;7.028;2023-03-20T00:00:57;18.77;;;12.90;;
912;SDS011;443;51.448;7.028;2023-03-20T00:03:24;19.33;;;13.00;;
912;SDS011;443;51.448;7.028;2023-03-20T00:05:51;20.17;;;12.50;;
912;SDS011;443;51.448;7.028;2023-03-20T00:08:18;16.30;;;11.07;;
912;SDS011;443;51.448;7.028;2023-03-20T00:10:45;16.67;;;11.13;;
912;SDS011;443;51.448;7.028;2023-03-20T00:13:12;16.90;;;12.53;;
912;SDS011;443;51.448;7.028;2023-03-20T00:15:45;15.80;;;9.63;;
912;SDS011;443;51.448;7.028;2023-03-20T00:18:13;15.67;;;9.67;;
912;SDS011;443;51.448;7.028;2023-03-20T00:20:42;17.17;;;10.73;;
912;SDS011;443;51.448;7.028;2023-03-20T00:23:09;12.00;;;8.63;;
912;SDS011;443;51.448;7.028;2023-03-20T00:25:35;14.20;;;8.90;;
912;SDS011;443;51.448;7.028;2023-03-20T00:28:09;14.67;;;9.30;;
912;SDS011;443;51.448;7.028;2023-03-20T00:30:54;13.33;;;8.87;;
912;SDS011;443;51.448;7.028;2023-03-20T00:33:21;14.40;;;9.83;;
912;SDS011;443;51.448;7.028;2023-03-20T00:35:48;15.10;;;10.83;;
912;SDS011;443;51.448;7.028;2023-03-20T00:38:15;13.43;;;10.17;;
912;SDS011;443;51.448;7.028;2023-03-20T00:40:41;13.00;;;10.33;;
912;SDS011;443;51.448;7.028;2023-03-20T00:43:08;17.33;;;10.77;;
912;SDS011;443;51.448;7.028;2023-03-20T00:45:39;13.30;;;9.50;;
912;SDS011;443;51.448;7.028;2023-03-20T00:48:14;12.00;;;8.47;;
912;SDS011;443;51.448;7.028;2023-03-20T00:50:41;11.70;;;8.50;;
912;SDS011;443;51.448;7.028;2023-03-20T00:53:09;13.20;;;9.03;;
912;SDS011;443;51.448;7.028;2023-03-20T00:55:36;10.07;;;6.60;;
912;SDS011;443;51.448;7.028;2023-03-20T00:58:05;11.07;;;8.47;;
912;SDS011;443;51.448;7.028;2023-03-20T01:00:33;12.63;;;8.40;;
912;SDS011;443;51.448;7.028;2023-03-20T01:03:08;13.20;;;7.90;;
912;SDS011;443;51.448;7.028;2023-03-20T01:05:39;13.73;;;7.40;;
912;SDS011;443;51.448;7.028;2023-03-20T01:08:13;14.17;;;7.27;;
912;SDS011;443;51.448;7.028;2023-03-20T01:10:42;15.20;;;9.37;;
912;SDS011;443;51.448;7.028;2023-03-20T01:13:12;13.97;;;9.87;;
912;SDS011;443;51.448;7.028;2023-03-20T01:15:43;12.07;;;7.40;;
912;SDS011;443;51.448;7.028;2023-03-20T01:18:11;13.00;;;7.77;;
912;SDS011;443;51.448;7.028;2023-03-20T01:20:40;10.57;;;7.43;;
912;SDS011;443;51.448;7.028;2023-03-20T01:23:08;13.30;;;6.53;;
912;SDS011;443;51.448;7.028;2023-03-20T01:25:35;9.77;;;7.40;;
912;SDS011;443;51.448;7.028;2023-03-20T01:28:02;10.90;;;7.73;;
912;SDS011;443;51.448;7.028;2023-03-20T01:30:36;9.40;;;7.40;;
912;SDS011;443;51.448;7.028;2023-03-20T01:33:05;10.77;;;7.77;;
912;SDS011;443;51.448;7.028;2023-03-20T01:35:37;9.57;;;6.90;;
912;SDS011;443;51.448;7.028;2023-03-20T01:38:08;8.20;;;6.03;;
912;SDS011;443;51.448;7.028;2023-03-20T01:40:39;8.90;;;6.07;;
912;SDS011;443;51.448;7.028;2023-03-20T01:43:14;10.70;;;7.30;;
912;SDS011;443;51.448;7.028;2023-03-20T01:45:46;9.10;;;5.97;;
912;SDS011;443;51.448;7.028;2023-03-20T01:48:19;8.67;;;6.47;;
912;SDS011;443;51.448;7.028;2023-03-20T01:50:48;9.97;;;5.90;;
912;SDS011;443;51.448;7.028;2023-03-20T01:53:17;8.13;;;6.70;;
912;SDS011;443;51.448;7.028;2023-03-20T01:55:47;8.60;;;7.10;;
912;SDS011;443;51.448;7.028;2023-03-20T01:58:18;8.50;;;5.70;;
912;SDS011;443;51.448;7.028;2023-03-20T02:00:49;11.80;;;6.60;;
912;SDS011;443;51.448;7.028;2023-03-20T02:03:17;7.57;;;6.30;;
912;SDS011;443;51.448;7.028;2023-03-20T02:05:46;6.70;;;5.30;;
912;SDS011;443;51.448;7.028;2023-03-20T02:08:18;9.10;;;5.43;;
912;SDS011;443;51.448;7.028;2023-03-20T02:10:48;11.20;;;6.00;;
912;SDS011;443;51.448;7.028;2023-03-20T02:13:15;7.07;;;4.90;;
912;SDS011;443;51.448;7.028;2023-03-20T02:15:54;9.43;;;5.70;;
912;SDS011;443;51.448;7.028;2023-03-20T02:18:22;8.83;;;5.20;;
912;SDS011;443;51.448;7.028;2023-03-20T02:21:06;8.77;;;5.80;;
912;SDS011;443;51.448;7.028;2023-03-20T02:23:59;7.47;;;4.53;;
912;SDS011;443;51.448;7.028;2023-03-20T02:27:01;7.93;;;6.27;;
912;SDS011;443;51.448;7.028;2023-03-20T02:29:39;7.20;;;5.20;;
912;SDS011;443;51.448;7.028;2023-03-20T02:38:24;7.83;;;4.40;;
912;SDS011;443;51.448;7.028;2023-03-20T02:41:20;6.80;;;4.83;;
912;SDS011;443;51.448;7.028;2023-03-20T02:43:52;5.27;;;4.43;;
912;SDS011;443;51.448;7.028;2023-03-20T02:46:26;6.47;;;4.20;;
912;SDS011;443;51.448;7.028;2023-03-20T02:49:00;4.57;;;3.40;;
912;SDS011;443;51.448;7.028;2023-03-20T02:51:36;7.40;;;4.00;;
912;SDS011;443;51.448;7.028;2023-03-20T02:54:08;5.93;;;3.70;;
912;SDS011;443;51.448;7.028;2023-03-20T02:56:40;7.20;;;3.70;;
912;SDS011;443;51.448;7.028;2023-03-20T02:59:18;5.67;;;3.73;;
912;SDS011;443;51.448;7.028;2023-03-20T03:01:53;4.50;;;3.67;;
912;SDS011;443;51.448;7.028;2023-03-20T03:04:23;6.03;;;4.13;;
912;SDS011;443;51.448;7.028;2023-03-20T03:06:53;5.80;;;3.73;;
912;SDS011;443;51.448;7.028;2023-03-20T03:09:26;5.70;;;4.30;;
912;SDS011;443;51.448;7.028;2023-03-20T03:11:58;8.03;;;4.00;;
912;SDS011;443;51.448;7.028;2023-03-20T03:14:31;6.77;;;4.23;;
912;SDS011;443;51.448;7.028;2023-03-20T03:17:03;5.23;;;4.00;;
912;SDS011;443;51.448;7.028;2023-03-20T03:19:31;4.97;;;3.50;;
912;SDS011;443;51.448;7.028;2023-03-20T03:22:02;6.70;;;4.17;;
912;SDS011;443;51.448;7.028;2023-03-20T03:24:31;8.47;;;3.97;;
912;SDS011;443;51.448;7.028;2023-03-20T03:27:00;5.33;;;3.77;;
912;SDS011;443;51.448;7.028;2023-03-20T03:29:30;4.80;;;3.60;;
912;SDS011;443;51.448;7.028;2023-03-20T03:32:01;5.30;;;4.10;;
912;SDS011;443;51.448;7.028;2023-03-20T03:34:31;6.10;;;4.27;;
912;SDS011;443;51.448;7.028;2023-03-20T03:37:01;5.90;;;3.50;;
912;SDS011;443;51.448;7.028;2023-03-20T03:39:34;6.37;;;4.13;;
912;SDS011;443;51.448;7.028;2023-03-20T03:42:07;6.67;;;4.17;;
912;SDS011;443;51.448;7.028;2023-03-20T03:44:42;6.90;;;4.67;;
912;SDS011;443;51.448;7.028;2023-03-20T03:47:15;6.20;;;3.83;;
912;SDS011;443;51.448;7.028;2023-03-20T03:49:48;9.17;;;4.80;;
912;SDS011;443;51.448;7.028;2023-03-20T03:52:19;6.37;;;4.20;;
912;SDS011;443;51.448;7.028;2023-03-20T03:54:50;7.70;;;4.97;;
912;SDS011;443;51.448;7.028;2023-03-20T03:57:21;8.93;;;4.73;;
912;SDS011;443;51.448;7.028;2023-03-20T03:59:53;9.93;;;6.10;;
912;SDS011;443;51.448;7.028;2023-03-20T04:02:21;8.33;;;5.60;;
912;SDS011;443;51.448;7.028;2023-03-20T04:04:49;8.03;;;6.27;;
912;SDS011;443;51.448;7.028;2023-03-20T04:07:18;11.57;;;6.27;;
912;SDS011;443;51.448;7.028;2023-03-20T04:09:45;9.10;;;6.03;;
912;SDS011;443;51.448;7.028;2023-03-20T04:12:27;10.37;;;5.53;;
912;SDS011;443;51.448;7.028;2023-03-20T04:14:58;11.07;;;5.97;;
912;SDS011;443;51.448;7.028;2023-03-20T04:17:25;10.47;;;5.73;;
912;SDS011;443;51.448;7.028;2023-03-20T04:19:52;10.00;;;6.90;;
912;SDS011;443;51.448;7.028;2023-03-20T04:22:19;11.93;;;7.60;;
912;SDS011;443;51.448;7.028;2023-03-20T04:24:46;12.43;;;8.70;;
912;SDS011;443;51.448;7.028;2023-03-20T04:27:12;11.90;;;7.20;;
912;SDS011;443;51.448;7.028;2023-03-20T04:29:42;8.90;;;6.57;;
912;SDS011;443;51.448;7.028;2023-03-20T04:32:09;9.20;;;6.33;;
912;SDS011;443;51.448;7.028;2023-03-20T04:34:36;12.57;;;7.27;;
912;SDS011;443;51.448;7.028;2023-03-20T04:37:03;11.90;;;6.27;;
912;SDS011;443;51.448;7.028;2023-03-20T04:39:32;9.40;;;6.10;;
912;SDS011;443;51.448;7.028;2023-03-20T04:41:59;14.40;;;8.07;;
912;SDS011;443;51.448;7.028;2023-03-20T04:44:25;11.33;;;6.77;;
912;SDS011;443;51.448;7.028;2023-03-20T04:46:53;12.97;;;8.40;;
912;SDS011;443;51.448;7.028;2023-03-20T04:49:20;11.73;;;7.20;;
912;SDS011;443;51.448;7.028;2023-03-20T04:51:47;11.70;;;7.07;;
912;SDS011;443;51.448;7.028;2023-03-20T04:54:14;12.27;;;7.23;;
912;SDS011;443;51.448;7.028;2023-03-20T04:56:41;11.93;;;8.93;;
912;SDS011;443;51.448;7.028;2023-03-20T04:59:08;11.30;;;7.87;;
912;SDS011;443;51.448;7.028;2023-03-20T05:01:34;14.33;;;9.73;;
912;SDS011;443;51.448;7.028;2023-03-20T05:04:03;17.90;;;8.27;;
912;SDS011;443;51.448;7.028;2023-03-20T05:06:30;13.67;;;8.60;;
912;SDS011;443;51.448;7.028;2023-03-20T05:08:57;13.77;;;8.23;;
912;SDS011;443;51.448;7.028;2023-03-20T05:11:24;11.77;;;7.00;;
912;SDS011;443;51.448;7.028;2023-03-20T05:13:51;11.93;;;7.70;;
912;SDS011;443;51.448;7.028;2023-03-20T05:16:18;12.50;;;8.70;;
912;SDS011;443;51.448;7.028;2023-03-20T05:18:45;14.10;;;8.50;;
912;SDS011;443;51.448;7.028;2023-03-20T05:21:13;15.03;;;8.23;;
912;SDS011;443;51.448;7.028;2023-03-20T05:23:40;11.40;;;8.40;;
912;SDS011;443;51.448;7.028;2023-03-20T05:26:07;12.27;;;8.10;;
912;SDS011;443;51.448;7.028;2023-03-20T05:28:34;15.70;;;8.93;;
912;SDS011;443;51.448;7.028;2023-03-20T05:31:02;14.20;;;7.87;;
912;SDS011;443;51.448;7.028;2023-03-20T05:33:29;10.03;;;6.40;;
912;SDS011;443;51.448;7.028;2023-03-20T05:35:55;14.97;;;8.60;;
912;SDS011;443;51.448;7.028;2023-03-20T05:38:23;11.80;;;8.20;;
912;SDS011;443;51.448;7.028;2023-03-20T05:40:54;13.67;;;8.17;;
912;SDS011;443;51.448;7.028;2023-03-20T05:43:21;12.00;;;8.77;;
912;SDS011;443;51.448;7.028;2023-03-20T05:45:48;11.30;;;7.10;;
912;SDS011;443;51.448;7.028;2023-03-20T05:48:15;12.50;;;7.60;;
912;SDS011;443;51.448;7.028;2023-03-20T05:50:42;13.73;;;7.47;;
912;SDS011;443;51.448;7.028;2023-03-20T05:53:08;10.80;;;7.97;;
912;SDS011;443;51.448;7.028;2023-03-20T05:55:36;13.27;;;7.90;;
912;SDS011;443;51.448;7.028;2023-03-20T05:58:04;9.80;;;7.30;;
912;SDS011;443;51.448;7.028;2023-03-20T06:00:31;12.07;;;7.67;;
912;SDS011;443;51.448;7.028;2023-03-20T06:02:58;10.43;;;7.07;;
912;SDS011;443;51.448;7.028;2023-03-20T06:05:25;10.77;;;7.60;;
912;SDS011;443;51.448;7.028;2023-03-20T06:07:51;11.73;;;7.93;;
912;SDS011;443;51.448;7.028;2023-03-20T06:10:18;9.47;;;5.93;;
912;SDS011;443;51.448;7.028;2023-03-20T06:12:46;10.57;;;6.80;;
912;SDS011;443;51.448;7.028;2023-03-20T06:15:14;8.93;;;7.10;;
912;SDS011;443;51.448;7.028;2023-03-20T06:17:40;12.40;;;6.57;;
912;SDS011;443;51.448;7.028;2023-03-20T06:20:07;8.17;;;5.53;;
912;SDS011;443;51.448;7.028;2023-03-20T06:22:35;13.33;;;6.40;;
912;SDS011;443;51.448;7.028;2023-03-20T06:25:02;9.60;;;6.70;;
912;SDS011;443;51.448;7.028;2023-03-20T06:27:29;8.40;;;5.27;;
912;SDS011;443;51.448;7.028;2023-03-20T06:29:57;10.67;;;6.27;;
912;SDS011;443;51.448;7.028;2023-03-20T06:32:23;9.97;;;6.10;;
912;SDS011;443;51.448;7.028;2023-03-20T06:34:51;7.80;;;5.50;;
912;SDS011;443;51.448;7.028;2023-03-20T06:37:18;6.07;;;4.20;;
912;SDS011;443;51.448;7.028;2023-03-20T06:39:45;7.83;;;5.37;;
912;SDS011;443;51.448;7.028;2023-03-20T06:42:12;7.30;;;4.70;;
912;SDS011;443;51.448;7.028;2023-03-20T06:44:39;9.10;;;4.20;;
912;SDS011;443;51.448;7.028;2023-03-20T06:47:07;7.70;;;5.50;;
912;SDS011;443;51.448;7.028;2023-03-20T06:49:34;6.57;;;5.37;;
912;SDS011;443;51.448;7.028;2023-03-20T06:52:01;7.50;;;4.70;;
912;SDS011;443;51.448;7.028;2023-03-20T06:54:28;7.00;;;4.47;;
912;SDS011;443;51.448;7.028;2023-03-20T06:56:55;7.40;;;4.93;;
912;SDS011;443;51.448;7.028;2023-03-20T06:59:22;7.80;;;4.97;;
912;SDS011;443;51.448;7.028;2023-03-20T07:01:49;9.47;;;6.07;;
912;SDS011;443;51.448;7.028;2023-03-20T07:04:18;6.07;;;4.20;;
912;SDS011;443;51.448;7.028;2023-03-20T07:06:44;8.13;;;4.77;;
912;SDS011;443;51.448;7.028;2023-03-20T07:09:11;8.80;;;5.20;;
912;SDS011;443;51.448;7.028;2023-03-20T07:11:38;7.40;;;4.83;;
912;SDS011;443;51.448;7.028;2023-03-20T07:14:05;6.67;;;4.27;;
912;SDS011;443;51.448;7.028;2023-03-20T07:16:33;8.43;;;5.00;;
912;SDS011;443;51.448;7.028;2023-03-20T07:19:00;7.97;;;4.53;;
912;SDS011;443;51.448;7.028;2023-03-20T07:21:29;6.67;;;4.70;;
912;SDS011;443;51.448;7.028;2023-03-20T07:23:55;5.67;;;4.10;;
912;SDS011;443;51.448;7.028;2023-03-20T07:26:22;6.47;;;4.93;;
912;SDS011;443;51.448;7.028;2023-03-20T07:28:49;7.13;;;5.07;;
912;SDS011;443;51.448;7.028;2023-03-20T07:31:17;6.40;;;3.80;;
912;SDS011;443;51.448;7.028;2023-03-20T07:33:45;10.10;;;5.93;;
912;SDS011;443;51.448;7.028;2023-03-20T07:36:12;11.47;;;5.20;;
912;SDS011;443;51.448;7.028;2023-03-20T07:38:41;10.30;;;5.40;;
912;SDS011;443;51.448;7.028;2023-03-20T07:41:07;10.30;;;5.73;;
912;SDS011;443;51.448;7.028;2023-03-20T07:43:34;6.30;;;4.93;;
912;SDS011;443;51.448;7.028;2023-03-20T07:46:01;9.73;;;5.07;;
912;SDS011;443;51.448;7.028;2023-03-20T07:48:29;9.43;;;4.90;;
912;SDS011;443;51.448;7.028;2023-03-20T07:50:56;13.70;;;6.00;;
912;SDS011;443;51.448;7.028;2023-03-20T07:53:23;10.30;;;6.33;;
912;SDS011;443;51.448;7.028;2023-03-20T07:55:51;10.47;;;7.40;;
912;SDS011;443;51.448;7.028;2023-03-20T07:58:18;13.03;;;7.07;;
912;SDS011;443;51.448;7.028;2023-03-20T08:00:45;9.43;;;6.10;;
912;SDS011;443;51.448;7.028;2023-03-20T08:03:12;10.97;;;7.63;;
912;SDS011;443;51.448;7.028;2023-03-20T08:05:39;13.37;;;8.07;;
912;SDS011;443;51.448;7.028;2023-03-20T08:08:06;13.67;;;7.90;;
912;SDS011;443;51.448;7.028;2023-03-20T08:10:32;10.43;;;6.60;;
912;SDS011;443;51.448;7.028;2023-03-20T08:13:00;12.03;;;7.27;;
912;SDS011;443;51.448;7.028;2023-03-20T08:15:27;12.20;;;6.53;;
912;SDS011;443;51.448;7.028;2023-03-20T08:17:54;11.40;;;6.90;;
912;SDS011;443;51.448;7.028;2023-03-20T08:20:22;13.13;;;7.53;;
912;SDS011;443;51.448;7.028;2023-03-20T08:22:50;12.93;;;6.10;;
912;SDS011;443;51.448;7.028;2023-03-20T08:25:17;11.93;;;7.03;;
912;SDS011;443;51.448;7.028;2023-03-20T08:27:44;7.67;;;6.27;;
912;SDS011;443;51.448;7.028;2023-03-20T08:30:12;10.57;;;6.00;;
912;SDS011;443;51.448;7.028;2023-03-20T08:32:39;12.37;;;6.97;;
912;SDS011;443;51.448;7.028;2023-03-20T08:35:06;8.50;;;6.13;;
912;SDS011;443;51.448;7.028;2023-03-20T08:37:34;10.17;;;7.13;;
912;SDS011;443;51.448;7.028;2023-03-20T08:40:02;9.63;;;6.27;;
912;SDS011;443;51.448;7.028;2023-03-20T08:42:30;13.03;;;6.00;;
912;SDS011;443;51.448;7.028;2023-03-20T08:44:57;14.70;;;5.97;;
912;SDS011;443;51.448;7.028;2023-03-20T08:47:25;8.20;;;6.30;;
912;SDS011;443;51.448;7.028;2023-03-20T08:49:52;8.13;;;6.30;;
912;SDS011;443;51.448;7.028;2023-03-20T08:52:18;8.77;;;5.17;;
912;SDS011;443;51.448;7.028;2023-03-20T08:54:45;8.50;;;4.53;;
912;SDS011;443;51.448;7.028;2023-03-20T08:57:12;9.30;;;6.60;;
912;SDS011;443;51.448;7.028;2023-03-20T08:59:39;9.50;;;5.20;;
912;SDS011;443;51.448;7.028;2023-03-20T09:02:06;10.73;;;5.17;;
912;SDS011;443;51.448;7.028;2023-03-20T09:04:36;7.60;;;4.53;;
912;SDS011;443;51.448;7.028;2023-03-20T09:07:04;9.13;;;5.90;;
912;SDS011;443;51.448;7.028;2023-03-20T09:09:31;7.27;;;5.07;;
912;SDS011;443;51.448;7.028;2023-03-20T09:11:58;12.13;;;5.67;;
912;SDS011;443;51.448;7.028;2023-03-20T09:14:26;9.77;;;5.07;;
912;SDS011;443;51.448;7.028;2023-03-20T09:16:53;7.60;;;5.03;;
912;SDS011;443;51.448;7.028;2023-03-20T09:19:20;5.67;;;4.23;;
912;SDS011;443;51.448;7.028;2023-03-20T09:21:48;9.47;;;5.70;;
912;SDS011;443;51.448;7.028;2023-03-20T09:24:15;9.10;;;4.50;;
912;SDS011;443;51.448;7.028;2023-03-20T09:26:42;12.50;;;5.63;;
912;SDS011;443;51.448;7.028;2023-03-20T09:29:09;7.60;;;4.90;;
912;SDS011;443;51.448;7.028;2023-03-20T09:31:35;7.57;;;5.10;;
912;SDS011;443;51.448;7.028;2023-03-20T09:34:03;9.17;;;4.53;;
912;SDS011;443;51.448;7.028;2023-03-20T09:36:30;8.23;;;4.50;;
912;SDS011;443;51.448;7.028;2023-03-20T09:38:59;6.00;;;3.80;;
912;SDS011;443;51.448;7.028;2023-03-20T09:41:26;8.67;;;4.90;;
912;SDS011;443;51.448;7.028;2023-03-20T09:44:03;5.30;;;3.93;;
912;SDS011;443;51.448;7.028;2023-03-20T09:46:45;4.73;;;3.83;;
912;SDS011;443;51.448;7.028;2023-03-20T09:49:23;7.37;;;5.07;;
912;SDS011;443;51.448;7.028;2023-03-20T09:52:02;4.03;;;3.17;;
912;SDS011;443;51.448;7.028;2023-03-20T09:54:38;6.73;;;3.10;;
912;SDS011;443;51.448;7.028;2023-03-20T09:57:08;7.23;;;3.10;;
912;SDS011;443;51.448;7.028;2023-03-20T09:59:44;3.57;;;2.70;;
912;SDS011;443;51.448;7.028;2023-03-20T10:02:14;5.70;;;3.70;;
912;SDS011;443;51.448;7.028;2023-03-20T10:04:48;5.13;;;2.70;;
912;SDS011;443;51.448;7.028;2023-03-20T10:07:18;10.57;;;3.33;;
912;SDS011;443;51.448;7.028;2023-03-20T10:09:47;5.40;;;2.53;;
912;SDS011;443;51.448;7.028;2023-03-20T10:12:26;3.23;;;2.43;;
912;SDS011;443;51.448;7.028;2023-03-20T10:15:02;2.13;;;1.37;;
912;SDS011;443;51.448;7.028;2023-03-20T10:17:39;4.93;;;1.50;;
912;SDS011;443;51.448;7.028;2023-03-20T10:20:20;2.97;;;2.27;;
912;SDS011;443;51.448;7.028;2023-03-20T10:22:52;6.47;;;2.50;;
912;SDS011;443;51.448;7.028;2023-03-20T10:25:25;4.73;;;2.70;;
912;SDS011;443;51.448;7.028;2023-03-20T10:27:56;7.23;;;1.57;;
912;SDS011;443;51.448;7.028;2023-03-20T10:30:30;7.03;;;2.20;;
912;SDS011;443;51.448;7.028;2023-03-20T10:33:07;6.83;;;2.00;;
912;SDS011;443;51.448;7.028;2023-03-20T10:35:50;4.27;;;1.83;;
912;SDS011;443;51.448;7.028;2023-03-20T10:38:29;4.70;;;2.03;;
912;SDS011;443;51.448;7.028;2023-03-20T10:41:04;2.83;;;1.97;;
912;SDS011;443;51.448;7.028;2023-03-20T10:43:38;3.67;;;1.90;;
912;SDS011;443;51.448;7.028;2023-03-20T10:46:07;2.60;;;1.57;;
912;SDS011;443;51.448;7.028;2023-03-20T10:48:39;2.93;;;2.07;;
912;SDS011;443;51.448;7.028;2023-03-20T10:51:11;4.27;;;2.20;;
912;SDS011;443;51.448;7.028;2023-03-20T10:53:42;5.50;;;2.70;;
912;SDS011;443;51.448;7.028;2023-03-20T10:56:14;5.83;;;3.10;;
912;SDS011;443;51.448;7.028;2023-03-20T10:58:55;8.07;;;2.87;;
912;SDS011;443;51.448;7.028;2023-03-20T11:01:26;3.97;;;1.80;;
912;SDS011;443;51.448;7.028;2023-03-20T11:03:53;6.07;;;2.50;;
912;SDS011;443;51.448;7.028;2023-03-20T11:06:21;6.97;;;2.60;;
912;SDS011;443;51.448;7.028;2023-03-20T11:08:52;7.70;;;2.87;;
912;SDS011;443;51.448;7.028;2023-03-20T11:11:24;3.70;;;2.63;;
912;SDS011;443;51.448;7.028;2023-03-20T11:13:52;2.80;;;1.77;;
912;SDS011;443;51.448;7.028;2023-03-20T11:16:21;11.83;;;2.83;;
912;SDS011;443;51.448;7.028;2023-03-20T11:18:51;5.17;;;2.30;;
912;SDS011;443;51.448;7.028;2023-03-20T11:21:19;5.00;;;2.90;;
912;SDS011;443;51.448;7.028;2023-03-20T11:23:48;8.47;;;3.67;;
912;SDS011;443;51.448;7.028;2023-03-20T11:26:16;3.60;;;2.67;;
912;SDS011;443;51.448;7.028;2023-03-20T11:28:50;3.53;;;2.23;;
912;SDS011;443;51.448;7.028;2023-03-20T11:31:20;4.60;;;2.60;;
912;SDS011;443;51.448;7.028;2023-03-20T11:33:52;4.73;;;2.73;;
912;SDS011;443;51.448;7.028;2023-03-20T11:36:34;6.83;;;2.40;;
912;SDS011;443;51.448;7.028;2023-03-20T11:39:04;6.73;;;2.70;;
912;SDS011;443;51.448;7.028;2023-03-20T11:41:33;3.10;;;2.03;;
912;SDS011;443;51.448;7.028;2023-03-20T11:44:16;4.40;;;1.83;;
912;SDS011;443;51.448;7.028;2023-03-20T11:46:52;3.17;;;2.27;;
912;SDS011;443;51.448;7.028;2023-03-20T11:49:21;6.73;;;1.70;;
912;SDS011;443;51.448;7.028;2023-03-20T11:51:50;3.73;;;2.67;;
912;SDS011;443;51.448;7.028;2023-03-20T11:54:18;3.80;;;1.50;;
912;SDS011;443;51.448;7.028;2023-03-20T11:56:51;3.17;;;2.20;;
912;SDS011;443;51.448;7.028;2023-03-20T11:59:21;5.17;;;2.23;;
912;SDS011;443;51.448;7.028;2023-03-20T12:01:51;3.90;;;2.07;;
912;SDS011;443;51.448;7.028;2023-03-20T12:04:24;5.00;;;2.20;;
912;SDS011;443;51.448;7.028;2023-03-20T12:06:54;2.97;;;1.93;;
912;SDS011;443;51.448;7.028;2023-03-20T12:09:25;7.20;;;2.10;;
912;SDS011;443;51.448;7.028;2023-03-20T12:12:06;6.17;;;2.20;;
912;SDS011;443;51.448;7.028;2023-03-20T12:14:42;3.60;;;2.67;;
912;SDS011;443;51.448;7.028;2023-03-20T12:20:10;5.87;;;2.30;;
912;SDS011;443;51.448;7.028;2023-03-20T12:22:48;3.30;;;1.73;;
912;SDS011;443;51.448;7.028;2023-03-20T12:25:19;8.27;;;3.10;;
912;SDS011;443;51.448;7.028;2023-03-20T12:27:51;2.10;;;1.83;;
912;SDS011;443;51.448;7.028;2023-03-20T12:30:25;3.60;;;2.67;;
912;SDS011;443;51.448;7.028;2023-03-20T12:32:58;3.70;;;2.00;;
912;SDS011;443;51.448;7.028;2023-03-20T12:35:30;5.73;;;2.50;;
912;SDS011;443;51.448;7.028;2023-03-20T12:37:58;4.30;;;2.07;;
912;SDS011;443;51.448;7.028;2023-03-20T12:40:27;4.70;;;2.73;;
912;SDS011;443;51.448;7.028;2023-03-20T12:43:01;4.53;;;2.27;;
912;SDS011;443;51.448;7.028;2023-03-20T12:45:32;6.40;;;2.23;;
912;SDS011;443;51.448;7.028;2023-03-20T12:48:08;2.00;;;1.50;;
912;SDS011;443;51.448;7.028;2023-03-20T12:50:44;2.03;;;1.40;;
912;SDS011;443;51.448;7.028;2023-03-20T12:53:25;3.00;;;1.80;;
912;SDS011;443;51.448;7.028;2023-03-20T12:56:03;2.80;;;1.57;;
912;SDS011;443;51.448;7.028;2023-03-20T12:58:42;3.50;;;1.33;;
912;SDS011;443;51.448;7.028;2023-03-20T13:01:15;5.80;;;1.93;;
912;SDS011;443;51.448;7.028;2023-03-20T13:03:51;2.63;;;1.83;;
912;SDS011;443;51.448;7.028;2023-03-20T13:06:39;2.73;;;1.60;;
912;SDS011;443;51.448;7.028;2023-03-20T13:09:29;4.07;;;1.80;;
912;SDS011;443;51.448;7.028;2023-03-20T13:12:17;3.33;;;1.73;;
912;SDS011;443;51.448;7.028;2023-03-20T13:14:55;3.77;;;1.57;;
912;SDS011;443;51.448;7.028;2023-03-20T13:17:30;4.40;;;1.73;;
912;SDS011;443;51.448;7.028;2023-03-20T13:20:13;5.07;;;1.43;;
912;SDS011;443;51.448;7.028;2023-03-20T13:22:47;3.20;;;1.83;;
912;SDS011;443;51.448;7.028;2023-03-20T13:25:28;5.43;;;3.40;;
912;SDS011;443;51.448;7.028;2023-03-20T13:28:20;7.30;;;2.27;;
912;SDS011;443;51.448;7.028;2023-03-20T13:30:55;2.67;;;1.70;;
912;SDS011;443;51.448;7.028;2023-03-20T13:33:35;2.23;;;1.87;;
912;SDS011;443;51.448;7.028;2023-03-20T13:36:11;4.57;;;2.73;;
912;SDS011;443;51.448;7.028;2023-03-20T13:38:44;4.03;;;1.97;;
912;SDS011;443;51.448;7.028;2023-03-20T13:41:13;2.43;;;1.57;;
912;SDS011;443;51.448;7.028;2023-03-20T13:43:42;4.00;;;2.27;;
912;SDS011;443;51.448;7.028;2023-03-20T13:46:13;3.73;;;1.83;;
912;SDS011;443;51.448;7.028;2023-03-20T13:48:44;4.03;;;2.43;;
912;SDS011;443;51.448;7.028;2023-03-20T13:51:23;3.70;;;2.70;;
912;SDS011;443;51.448;7.028;2023-03-20T13:54:05;2.63;;;2.07;;
912;SDS011;443;51.448;7.028;2023-03-20T13:56:40;5.47;;;2.50;;
912;SDS011;443;51.448;7.028;2023-03-20T14:02:10;3.00;;;2.40;;
912;SDS011;443;51.448;7.028;2023-03-20T14:04:50;9.20;;;3.30;;
912;SDS011;443;51.448;7.028;2023-03-20T14:07:26;4.73;;;2.00;;
912;SDS011;443;51.448;7.028;2023-03-20T14:09:54;5.00;;;2.53;;
912;SDS011;443;51.448;7.028;2023-03-20T14:12:22;2.03;;;1.77;;
912;SDS011;443;51.448;7.028;2023-03-20T14:14:51;2.50;;;2.10;;
912;SDS011;443;51.448;7.028;2023-03-20T14:17:20;6.60;;;2.87;;
912;SDS011;443;51.448;7.028;2023-03-20T14:19:52;4.77;;;2.00;;
912;SDS011;443;51.448;7.028;2023-03-20T14:22:20;6.40;;;2.90;;
912;SDS011;443;51.448;7.028;2023-03-20T14:24:50;4.47;;;1.90;;
912;SDS011;443;51.448;7.028;2023-03-20T14:27:20;6.70;;;2.63;;
912;SDS011;443;51.448;7.028;2023-03-20T14:29:49;2.53;;;1.90;;
912;SDS011;443;51.448;7.028;2023-03-20T14:35:22;2.20;;;1.90;;
912;SDS011;443;51.448;7.028;2023-03-20T14:38:00;5.17;;;2.60;;
912;SDS011;443;51.448;7.028;2023-03-20T14:40:35;4.10;;;2.27;;
912;SDS011;443;51.448;7.028;2023-03-20T14:43:12;7.03;;;2.60;;
912;SDS011;443;51.448;7.028;2023-03-20T14:45:44;4.20;;;2.00;;
912;SDS011;443;51.448;7.028;2023-03-20T14:48:23;3.60;;;2.20;;
912;SDS011;443;51.448;7.028;2023-03-20T14:51:00;4.93;;;2.40;;
912;SDS011;443;51.448;7.028;2023-03-20T14:53:32;2.30;;;1.73;;
912;SDS011;443;51.448;7.028;2023-03-20T14:56:06;6.23;;;3.50;;
912;SDS011;443;51.448;7.028;2023-03-20T14:58:45;4.87;;;2.13;;
912;SDS011;443;51.448;7.028;2023-03-20T15:01:23;3.00;;;1.73;;
912;SDS011;443;51.448;7.028;2023-03-20T15:03:52;4.17;;;2.30;;
912;SDS011;443;51.448;7.028;2023-03-20T15:06:24;3.73;;;2.03;;
912;SDS011;443;51.448;7.028;2023-03-20T15:08:54;7.23;;;2.27;;
912;SDS011;443;51.448;7.028;2023-03-20T15:11:25;8.10;;;2.37;;
912;SDS011;443;51.448;7.028;2023-03-20T15:13:52;2.40;;;1.60;;
912;SDS011;443;51.448;7.028;2023-03-20T15:16:26;10.10;;;3.60;;
912;SDS011;443;51.448;7.028;2023-03-20T15:18:54;7.90;;;2.60;;
912;SDS011;443;51.448;7.028;2023-03-20T15:21:27;4.07;;;2.37;;
912;SDS011;443;51.448;7.028;2023-03-20T15:23:57;4.97;;;2.90;;
912;SDS011;443;51.448;7.028;2023-03-20T15:26:26;5.80;;;2.33;;
912;SDS011;443;51.448;7.028;2023-03-20T15:28:56;5.33;;;3.10;;
912;SDS011;443;51.448;7.028;2023-03-20T15:31:26;5.20;;;2.57;;
912;SDS011;443;51.448;7.028;2023-03-20T15:33:56;4.27;;;2.50;;
912;SDS011;443;51.448;7.028;2023-03-20T15:36:25;3.80;;;2.40;;
912;SDS011;443;51.448;7.028;2023-03-20T15:39:06;2.73;;;2.03;;
912;SDS011;443;51.448;7.028;2023-03-20T15:41:39;5.60;;;2.33;;
912;SDS011;443;51.448;7.028;2023-03-20T15:44:20;4.83;;;3.30;;
912;SDS011;443;51.448;7.028;2023-03-20T15:46:49;8.77;;;3.90;;
912;SDS011;443;51.448;7.028;2023-03-20T15:49:21;4.33;;;3.13;;
912;SDS011;443;51.448;7.028;2023-03-20T15:51:51;5.33;;;3.13;;
912;SDS011;443;51.448;7.028;2023-03-20T15:54:19;4.30;;;2.73;;
912;SDS011;443;51.448;7.028;2023-03-20T15:56:48;4.23;;;3.07;;
912;SDS011;443;51.448;7.028;2023-03-20T15:59:17;4.47;;;2.53;;
912;SDS011;443;51.448;7.028;2023-03-20T16:01:46;6.60;;;2.90;;
912;SDS011;443;51.448;7.028;2023-03-20T16:04:16;9.00;;;3.50;;
912;SDS011;443;51.448;7.028;2023-03-20T16:06:45;3.70;;;2.13;;
912;SDS011;443;51.448;7.028;2023-03-20T16:09:15;3.70;;;2.40;;
912;SDS011;443;51.448;7.028;2023-03-20T16:11:43;4.33;;;2.33;;
912;SDS011;443;51.448;7.028;2023-03-20T16:14:13;5.17;;;3.00;;
912;SDS011;443;51.448;7.028;2023-03-20T16:16:44;4.23;;;2.43;;